Time;durP1;ratioP1;P1;durP2;ratioP2;P2;SDS_P1;SDS_P2;PMS_P1;PMS_P2;Temp;Humidity;BMP_temperature;BMP_pressure;BME280_temperature;BME280_humidity;BME280_pressure;Samples;Min_cycle;Max_cycle;Signal;HPM_P1;HPM_P2
2022/11/17 00:01:45;;;;;;;49.53;27.95;;;;;;;29.91;71.01;100787.06;5084286;27;65946;-37
2022/11/17 00:04:17;;;;;;;41.97;27.27;;;;;;;29.98;71.56;100798.69;5088902;27;70218;-37
2022/11/17 00:06:48;;;;;;;62.78;29.77;;;;;;;29.96;71.86;100796.19;5086482;27;65472;-36
2022/11/17 00:09:19;;;;;;;66.77;30.67;;;;;;;30.04;72.67;100805.94;5091717;27;70249;-36
2022/11/17 00:14:40;;;;;;;93.40;53.95;;;;;;;30.10;72.80;100799.66;5088504;27;69679;-37
2022/11/17 00:17:12;;;;;;;84.25;54.92;;;;;;;30.15;73.18;100807.94;5085846;27;66321;-36
2022/11/17 00:22:34;;;;;;;83.80;51.60;;;;;;;30.22;73.76;100810.63;5081673;27;66550;-39
2022/11/17 00:25:05;;;;;;;86.75;47.65;;;;;;;30.24;73.93;100812.06;5081338;27;70500;-37
2022/11/17 00:27:37;;;;;;;;;;;;;;;30.03;75.13;100820.47;5082778;27;65874;-36
2022/11/17 00:34:03;;;;;;;74.25;40.63;;;;;;;30.25;74.57;100813.72;5086552;27;70433;-38
2022/11/17 00:35:54;;;;;;;63.83;37.42;;;;;;;30.26;74.04;100815.41;5081517;27;69898;-37
2022/11/17 00:38:25;;;;;;;50.72;32.78;;;;;;;30.34;71.78;100827.84;5082072;27;66318;-36
2022/11/17 00:40:57;;;;;;;45.27;30.33;;;;;;;30.35;70.47;100823.25;5085517;27;69091;-38
2022/11/17 00:43:29;;;;;;;43.42;30.00;;;;;;;30.27;70.10;100814.34;5089074;27;65498;-36
2022/11/17 00:46:00;;;;;;;41.30;29.77;;;;;;;30.42;69.90;100834.84;5083614;27;70168;-36
2022/11/17 00:48:31;;;;;;;37.75;28.17;;;;;;;30.44;69.72;100830.06;5083159;27;66552;-37
2022/11/17 00:51:05;;;;;;;34.10;27.08;;;;;;;30.48;69.06;100834.00;5090014;27;70009;-36
2022/11/17 00:53:36;;;;;;;29.60;25.98;;;;;;;30.53;68.66;100842.28;5082683;27;66489;-37
2022/11/17 00:56:07;;;;;;;42.78;27.23;;;;;;;30.53;69.15;100842.28;5078388;27;70110;-36
2022/11/17 00:58:38;;;;;;;37.60;27.37;;;;;;;30.39;68.87;100813.63;5083529;27;66189;-37
2022/11/17 01:01:10;;;;;;;34.40;27.53;;;;;;;30.54;68.95;100833.13;5082635;27;69345;-36
2022/11/17 01:03:43;;;;;;;36.92;26.98;;;;;;;30.62;68.24;100838.28;5083813;27;66585;-37
2022/11/17 01:06:17;;;;;;;39.15;27.30;;;;;;;30.45;68.22;100812.75;5082358;27;70288;-37
2022/11/17 01:08:48;;;;;;;33.08;26.08;;;;;;;30.64;68.81;100838.84;5079805;27;66306;-37
2022/11/17 01:11:20;;;;;;;31.17;25.77;;;;;;;30.57;68.66;100829.97;5089189;27;69427;-37
2022/11/17 01:13:55;;;;;;;31.53;26.57;;;;;;;30.32;69.07;100775.00;5086946;27;64962;-36
2022/11/17 01:16:28;;;;;;;28.02;25.05;;;;;;;30.75;68.73;100850.84;5082921;27;70522;-36
2022/11/17 01:19:03;;;;;;;39.42;27.73;;;;;;;30.78;68.76;100855.00;5088916;27;65925;-36
2022/11/17 01:21:35;;;;;;;33.55;27.52;;;;;;;30.77;68.33;100847.94;5089410;27;70670;-36
2022/11/17 01:24:06;;;;;;;30.87;26.37;;;;;;;30.66;68.68;100841.34;5084194;27;65615;-37
2022/11/17 01:26:39;;;;;;;34.67;26.60;;;;;;;30.32;68.31;100775.81;5085219;27;69218;-36
2022/11/17 01:29:13;;;;;;;36.45;26.45;;;;;;;30.82;67.89;100851.69;5087865;27;66452;-37
2022/11/17 01:31:49;;;;;;;32.30;26.67;;;;;;;30.76;68.14;100840.84;5087646;27;71281;-36
2022/11/17 01:34:20;;;;;;;32.22;27.73;;;;;;;30.86;68.16;100854.75;5080388;27;65860;-36
2022/11/17 01:39:41;;;;;;;34.50;27.20;;;;;;;30.83;68.38;100847.91;5083223;27;65574;-36
2022/11/17 01:42:19;;;;;;;31.65;27.70;;;;;;;30.88;67.91;100844.56;5083806;27;70530;-39
2022/11/17 01:44:56;;;;;;;33.92;27.45;;;;;;;30.91;69.08;100855.75;5085267;27;66385;-36
2022/11/17 01:47:53;;;;;;;34.47;28.52;;;;;;;30.76;69.52;100846.25;5080680;27;69785;-37
2022/11/17 01:50:39;;;;;;;30.45;27.05;;;;;;;30.74;68.07;100816.72;5087556;27;65502;-37
2022/11/17 01:53:14;;;;;;;30.25;26.73;;;;;;;30.97;68.07;100859.47;5084826;27;70015;-36
2022/11/17 01:55:57;;;;;;;34.03;27.30;;;;;;;30.44;69.15;100767.81;5084529;27;65387;-38
2022/11/17 01:58:35;;;;;;;30.90;26.65;;;;;;;30.97;68.89;100847.81;5082331;27;69711;-36
2022/11/17 02:01:06;;;;;;;31.85;26.35;;;;;;;30.97;68.69;100840.50;5086644;27;65878;-36
2022/11/17 02:03:39;;;;;;;32.50;25.90;;;;;;;30.66;68.26;100787.22;5083457;27;70099;-38
2022/11/17 02:06:27;;;;;;;29.85;26.25;;;;;;;30.57;68.73;100770.41;5089246;27;66439;-36
2022/11/17 02:09:00;;;;;;;29.13;25.90;;;;;;;30.22;68.47;100703.22;5086237;27;70680;-37
2022/11/17 02:11:34;;;;;;;38.83;25.73;;;;;;;31.02;68.63;100837.97;5086661;27;65496;-37
2022/11/17 02:14:06;;;;;;;36.20;26.02;;;;;;;31.10;68.71;100848.50;5087423;27;70377;-37
2022/11/17 02:16:37;;;;;;;26.98;23.88;;;;;;;31.09;68.21;100852.28;5081522;27;65615;-36
2022/11/17 02:19:12;;;;;;;33.83;23.38;;;;;;;31.07;68.36;100842.72;5091602;27;68777;-35
2022/11/17 02:22:04;;;;;;;26.70;23.00;;;;;;;30.67;69.16;100791.56;5086927;27;66257;-35
2022/11/17 02:24:59;;;;;;;25.05;21.73;;;;;;;31.07;69.20;100859.81;5090469;27;68853;-38
2022/11/17 02:27:49;;;;;;;26.00;22.35;;;;;;;31.09;68.87;100857.72;5082153;27;65809;-36
2022/11/17 02:30:22;;;;;;;31.10;23.45;;;;;;;30.70;67.98;100778.44;5081770;27;70851;-37
2022/11/17 02:33:01;;;;;;;22.67;20.45;;;;;;;30.82;68.21;100794.81;5094231;27;66731;-36
2022/11/17 02:35:58;;;;;;;22.52;19.90;;;;;;;31.22;67.92;100864.03;5081671;27;69941;-36
2022/11/17 02:38:40;;;;;;;22.45;20.05;;;;;;;31.21;68.32;100859.69;5082588;27;66009;-38
2022/11/17 02:41:16;;;;;;;21.80;19.58;;;;;;;31.27;67.45;100858.78;5087307;27;69365;-36
2022/11/17 02:44:06;;;;;;;21.40;19.15;;;;;;;31.24;68.27;100862.78;5091745;27;65304;-36
2022/11/17 02:47:01;;;;;;;20.02;18.00;;;;;;;31.24;68.20;100854.63;5093615;27;69568;-37
2022/11/17 02:49:43;;;;;;;19.63;17.50;;;;;;;31.32;67.68;100856.25;5085367;27;65714;-37
2022/11/17 02:52:17;;;;;;;21.75;18.70;;;;;;;31.35;67.42;100844.94;5086322;27;70572;-36
2022/11/17 02:54:48;;;;;;;29.23;23.73;;;;;;;31.37;67.20;100849.13;5086665;27;66309;-36
2022/11/17 02:57:28;;;;;;;30.00;23.27;;;;;;;31.36;67.33;100833.06;5090444;27;69893;-37
2022/11/17 03:00:06;;;;;;;32.42;26.80;;;;;;;30.96;66.64;100765.72;5087879;27;66479;-36
2022/11/17 03:02:55;;;;;;;37.08;30.98;;;;;;;31.35;67.46;100839.53;5086818;27;68594;-37
2022/11/17 03:05:29;;;;;;;41.70;30.23;;;;;;;31.44;66.77;100832.78;5083979;27;65603;-37
2022/11/17 03:08:20;;;;;;;38.47;30.35;;;;;;;31.46;66.79;100830.69;5095992;27;70392;-36
2022/11/17 03:11:01;;;;;;;36.80;29.33;;;;;;;31.46;66.33;100830.69;5081693;27;66868;-36
2022/11/17 03:13:46;;;;;;;41.40;30.80;;;;;;;31.33;66.23;100814.53;5086271;27;70204;-36
2022/11/17 03:16:46;;;;;;;36.70;30.20;;;;;;;31.41;66.37;100830.53;5084308;27;66804;-36
2022/11/17 03:19:43;;;;;;;36.75;29.13;;;;;;;31.39;66.72;100835.34;5082326;27;70099;-37
2022/11/17 03:22:40;;;;;;;39.33;30.83;;;;;;;31.18;66.12;100771.53;5080382;27;65778;-36
2022/11/17 03:25:16;;;;;;;41.45;29.33;;;;;;;31.55;65.79;100829.31;5088462;27;70569;-36
2022/11/17 03:27:53;;;;;;;38.17;30.40;;;;;;;31.44;66.11;100805.66;5091238;27;66386;-36
2022/11/17 03:30:25;;;;;;;33.97;28.65;;;;;;;31.56;66.21;100825.53;5085312;27;70654;-37
2022/11/17 03:33:08;;;;;;;37.47;29.05;;;;;;;31.57;66.07;100810.94;5083974;27;66587;-36
2022/11/17 03:35:46;;;;;;;38.92;27.95;;;;;;;31.61;65.85;100817.56;5088168;27;69783;-36
2022/11/17 03:38:25;;;;;;;30.33;27.23;;;;;;;31.12;66.12;100729.91;5095626;27;65749;-36
2022/11/17 03:40:58;;;;;;;29.38;26.33;;;;;;;31.26;65.77;100743.28;5087570;27;70792;-37
2022/11/17 03:43:31;;;;;;;32.33;26.30;;;;;;;31.61;65.32;100806.72;5076719;27;65619;-36
2022/11/17 03:46:09;;;;;;;29.98;25.63;;;;;;;31.64;65.43;100799.19;5084937;27;70194;-35
2022/11/17 03:49:05;;;;;;;29.15;26.08;;;;;;;31.59;65.44;100789.88;5087712;27;65774;-36
2022/11/17 03:51:37;;;;;;;32.28;26.45;;;;;;;31.65;65.12;100793.53;5085992;27;70641;-35
2022/11/17 03:54:09;;;;;;;32.07;25.87;;;;;;;31.55;65.15;100775.09;5086805;27;65147;-36
2022/11/17 03:56:46;;;;;;;30.92;26.27;;;;;;;31.68;64.86;100787.66;5083405;27;70324;-36
2022/11/17 03:59:45;;;;;;;31.23;25.70;;;;;;;31.69;64.83;100780.34;5096939;27;65659;-36
2022/11/17 04:02:18;;;;;;;27.35;24.50;;;;;;;31.47;65.16;100742.88;5082976;27;69233;-37
2022/11/17 04:05:04;;;;;;;28.23;25.25;;;;;;;31.71;64.84;100772.81;5083082;27;66735;-37
2022/11/17 04:07:41;;;;;;;30.85;25.95;;;;;;;31.72;65.07;100774.47;5083763;27;70147;-37
2022/11/17 04:10:17;;;;;;;29.27;26.20;;;;;;;31.73;65.15;100766.13;5077846;27;66858;-35
2022/11/17 04:15:57;;;;;;;28.85;25.65;;;;;;;31.74;64.73;100756.91;5088051;27;65670;-37
2022/11/17 04:18:28;;;;;;;27.42;24.20;;;;;;;31.70;64.89;100749.44;5086267;27;69478;-38
2022/11/17 04:20:59;;;;;;;28.92;25.13;;;;;;;31.73;64.49;100747.13;5088637;27;66881;-36
2022/11/17 04:23:31;;;;;;;34.20;23.83;;;;;;;31.76;64.54;100738.53;5082669;27;70106;-36
2022/11/17 04:28:53;;;;;;;28.33;23.38;;;;;;;31.44;64.40;100683.69;5082588;27;70142;-36
2022/11/17 04:31:30;;;;;;;29.42;23.50;;;;;;;31.37;64.42;100658.53;5089467;27;66944;-36
2022/11/17 04:34:04;;;;;;;27.67;23.45;;;;;;;31.37;64.57;100656.69;5083524;27;69798;-37
2022/11/17 04:36:42;;;;;;;30.23;23.40;;;;;;;31.10;64.61;100607.38;5081196;27;65800;-36
2022/11/17 04:39:15;;;;;;;27.50;22.52;;;;;;;31.59;64.54;100678.69;5083534;27;69639;-37
2022/11/17 04:42:02;;;;;;;25.85;22.73;;;;;;;31.90;64.56;100728.31;5084049;27;65092;-36
2022/11/17 04:44:33;;;;;;;25.95;22.55;;;;;;;31.93;64.24;100722.47;5084944;27;70081;-36
2022/11/17 04:47:05;;;;;;;22.90;20.77;;;;;;;31.91;64.43;100711.00;5083760;27;65835;-36
2022/11/17 04:49:36;;;;;;;21.80;19.35;;;;;;;31.95;63.82;100712.19;5078137;27;70269;-36
2022/11/17 04:52:08;;;;;;;21.23;19.30;;;;;;;31.98;63.86;100708.19;5082286;27;65967;-35
2022/11/17 04:54:39;;;;;;;21.80;18.17;;;;;;;31.96;63.83;100692.16;5080790;27;69717;-36
2022/11/17 04:57:10;;;;;;;19.70;17.57;;;;;;;32.01;63.81;100700.44;5096423;27;64646;-38
2022/11/17 04:59:42;;;;;;;18.60;16.80;;;;;;;31.97;63.50;100690.25;5090312;27;69977;-36
2022/11/17 05:02:13;;;;;;;17.43;15.50;;;;;;;32.03;63.63;100679.28;5079995;27;66115;-37
2022/11/17 05:04:56;;;;;;;17.02;15.25;;;;;;;32.04;63.76;100677.44;5083664;27;69700;-36
2022/11/17 05:07:28;;;;;;;16.65;13.68;;;;;;;32.10;63.50;100686.53;5086390;27;65714;-37
2022/11/17 05:10:00;;;;;;;14.50;13.07;;;;;;;32.11;63.30;100675.44;5083286;27;69641;-36
2022/11/17 05:17:03;;;;;;;15.85;14.45;;;;;;;32.09;63.44;100657.72;5082272;27;69682;-35
2022/11/17 05:18:12;;;;;;;15.30;13.40;;;;;;;32.15;63.72;100643.22;5084638;27;66022;-38
2022/11/17 05:20:43;;;;;;;14.27;12.93;;;;;;;32.00;63.27;100613.84;5084866;27;70231;-36
2022/11/17 05:26:05;;;;;;;14.60;12.93;;;;;;;32.20;63.39;100624.34;5082500;27;70296;-37
2022/11/17 05:28:36;;;;;;;13.95;12.30;;;;;;;32.19;63.47;100622.69;5082217;27;64250;-37
2022/11/17 05:31:08;;;;;;;13.35;12.05;;;;;;;32.23;63.29;100623.88;5081181;27;70034;-36
2022/11/17 05:33:39;;;;;;;;;;;;;;;31.94;63.98;100615.59;5087087;27;66296;-36
2022/11/17 05:36:11;;;;;;;12.43;11.23;;;;;;;32.24;63.34;100603.81;5083246;27;69076;-36
2022/11/17 05:38:43;;;;;;;13.52;12.20;;;;;;;32.25;63.36;100592.72;5083718;27;67222;-37
2022/11/17 05:41:15;;;;;;;13.70;12.40;;;;;;;32.29;63.38;100601.22;5066362;28;69544;-35
2022/11/17 05:43:49;;;;;;;13.05;11.90;;;;;;;32.32;63.07;100589.91;5080697;27;66772;-36
2022/11/17 05:46:21;;;;;;;12.68;11.60;;;;;;;32.29;63.24;100574.09;5091133;27;69827;-35
2022/11/17 05:48:53;;;;;;;12.63;11.32;;;;;;;32.34;63.12;100576.91;5080649;27;66296;-36
2022/11/17 05:51:25;;;;;;;12.43;11.43;;;;;;;32.35;63.25;100570.41;5080359;27;69395;-38
2022/11/17 05:53:56;;;;;;;11.55;10.52;;;;;;;32.37;63.40;100575.59;5101593;27;65433;-38
2022/11/17 05:57:06;;;;;;;12.63;11.33;;;;;;;32.30;63.02;100559.44;5083773;27;70517;-37
2022/11/17 05:59:52;;;;;;;11.40;10.38;;;;;;;32.21;63.06;100539.16;5086553;27;66901;-36
2022/11/17 06:02:30;;;;;;;17.45;10.18;;;;;;;32.41;62.92;100539.59;5080267;27;70083;-37
2022/11/17 06:05:02;;;;;;;10.90;9.80;;;;;;;32.45;63.34;100546.19;5082565;27;66495;-37
2022/11/17 06:07:35;;;;;;;11.18;10.30;;;;;;;32.45;63.08;100531.78;5079159;27;69733;-36
2022/11/17 06:10:07;;;;;;;10.27;9.48;;;;;;;32.46;63.08;100520.75;5083768;27;65600;-35
2022/11/17 06:12:38;;;;;;;10.27;9.52;;;;;;;32.41;62.96;100504.31;5085600;27;69585;-37
2022/11/17 06:15:10;;;;;;;10.37;9.37;;;;;;;32.49;63.23;100514.81;5087080;27;65634;-35
2022/11/17 06:17:58;;;;;;;10.63;9.60;;;;;;;31.68;62.94;100382.78;5085055;27;69489;-36
2022/11/17 06:20:41;;;;;;;9.95;8.95;;;;;;;32.00;62.82;100424.75;5089294;27;65677;-35
2022/11/17 06:23:14;;;;;;;10.63;9.57;;;;;;;32.55;63.27;100504.06;5087349;27;69274;-36
2022/11/17 06:25:45;;;;;;;9.82;8.77;;;;;;;32.54;63.32;100494.25;5085594;27;65902;-36
2022/11/17 06:28:20;;;;;;;8.75;8.02;;;;;;;32.15;63.36;100420.69;5089973;27;70028;-38
2022/11/17 06:30:52;;;;;;;9.73;8.80;;;;;;;32.60;63.35;100482.47;5089411;27;66022;-36
2022/11/17 06:33:25;;;;;;;9.57;8.55;;;;;;;32.61;63.44;100489.53;5088949;27;69370;-35
2022/11/17 06:35:58;;;;;;;9.63;8.82;;;;;;;32.61;63.46;100484.09;5097272;27;65298;-37
2022/11/17 06:38:32;;;;;;;9.43;8.20;;;;;;;32.68;63.30;100496.47;5087084;27;69362;-37
2022/11/17 06:41:04;;;;;;;9.40;8.27;;;;;;;32.71;63.37;100500.59;5083288;27;65748;-35
2022/11/17 06:43:41;;;;;;;9.13;8.27;;;;;;;32.70;63.35;100488.06;5082096;27;70115;-35
2022/11/17 06:46:12;;;;;;;8.50;7.40;;;;;;;32.72;63.31;100485.94;5088000;27;65296;-36
2022/11/17 06:48:43;;;;;;;9.05;7.90;;;;;;;32.75;63.23;100480.03;5094489;27;70941;-37
2022/11/17 06:51:17;;;;;;;10.43;6.82;;;;;;;32.73;63.31;100465.84;5085915;27;66618;-37
2022/11/17 06:53:48;;;;;;;8.00;6.67;;;;;;;32.77;63.25;100469.75;5091206;27;70365;-37
2022/11/17 06:56:19;;;;;;;11.07;7.03;;;;;;;32.83;63.43;100470.66;5091795;27;66100;-36
2022/11/17 06:58:51;;;;;;;10.93;6.95;;;;;;;32.86;63.43;100471.00;5087268;27;69187;-37
2022/11/17 07:01:22;;;;;;;10.77;7.72;;;;;;;32.85;63.28;100458.50;5089454;27;66149;-35
2022/11/17 07:03:54;;;;;;;9.25;6.85;;;;;;;32.89;63.13;100459.63;5085075;27;70035;-36
2022/11/17 07:06:25;;;;;;;13.85;6.40;;;;;;;32.82;63.21;100436.41;5091512;27;66295;-40
2022/11/17 07:08:56;;;;;;;16.92;6.78;;;;;;;32.93;63.63;100447.22;5096573;27;69294;-35
2022/11/17 07:11:27;;;;;;;13.13;6.87;;;;;;;32.90;63.09;100439.56;5087534;27;67451;-36
2022/11/17 07:13:58;;;;;;;13.48;6.68;;;;;;;32.55;62.84;100376.47;5091800;27;69814;-38
2022/11/17 07:16:31;;;;;;;11.02;6.18;;;;;;;33.02;63.18;100442.25;5091916;27;66343;-38
2022/11/17 07:19:02;;;;;;;17.92;6.40;;;;;;;33.10;62.72;100438.31;5088276;27;69627;-36
2022/11/17 07:21:34;;;;;;;10.45;6.28;;;;;;;33.11;62.86;100424.47;5090270;27;65291;-36
2022/11/17 07:24:05;;;;;;;7.18;5.82;;;;;;;33.15;62.92;100422.06;5087960;27;69956;-36
2022/11/17 07:26:37;;;;;;;10.40;5.85;;;;;;;33.04;62.90;100396.66;5088503;27;66703;-36
2022/11/17 07:29:08;;;;;;;10.95;5.90;;;;;;;33.21;62.93;100415.66;5090640;27;68074;-36
2022/11/17 07:31:39;;;;;;;15.07;5.78;;;;;;;33.22;62.79;100409.16;5088894;27;66306;-36
2022/11/17 07:34:11;;;;;;;15.90;6.18;;;;;;;33.20;62.41;100396.88;5085597;27;70264;-37
2022/11/17 07:36:42;;;;;;;;;;;;;;;33.02;63.33;100420.50;5088733;27;65697;-37
2022/11/17 07:39:14;;;;;;;8.05;5.10;;;;;;;33.32;62.56;100439.22;5087285;27;70647;-36
2022/11/17 07:41:50;;;;;;;14.43;5.43;;;;;;;33.40;62.76;100437.13;5086306;27;66564;-37
2022/11/17 07:44:21;;;;;;;11.80;6.37;;;;;;;33.42;62.32;100432.28;5081752;27;70470;-36
2022/11/17 07:46:53;;;;;;;6.53;5.88;;;;;;;33.44;62.56;100422.00;5081903;27;65559;-36
2022/11/17 07:49:27;;;;;;;9.20;6.18;;;;;;;33.35;61.90;100403.38;5085502;27;70766;-35
2022/11/17 07:51:58;;;;;;;10.45;6.13;;;;;;;33.47;62.44;100405.19;5082309;27;66285;-36
2022/11/17 07:54:30;;;;;;;32.97;24.85;;;;;;;33.47;61.91;100407.91;5094531;27;70131;-35
2022/11/17 07:57:01;;;;;;;48.38;38.92;;;;;;;33.52;61.01;100413.41;5083880;27;66539;-36
2022/11/17 07:59:32;;;;;;;48.40;37.13;;;;;;;33.42;60.90;100377.91;5092204;27;69238;-36
2022/11/17 08:02:04;;;;;;;44.03;32.25;;;;;;;33.47;60.80;100388.88;5084646;27;66775;-37
2022/11/17 08:04:35;;;;;;;34.85;26.90;;;;;;;33.52;60.99;100413.41;5085391;27;70044;-36
2022/11/17 08:07:06;;;;;;;27.10;21.15;;;;;;;33.51;61.14;100411.75;5086824;27;65474;-38
2022/11/17 08:09:37;;;;;;;28.88;19.15;;;;;;;33.57;61.43;100418.94;5087706;27;69799;-35
2022/11/17 08:12:08;;;;;;;24.77;18.00;;;;;;;33.62;61.39;100407.31;5085692;27;65688;-36
2022/11/17 08:14:39;;;;;;;19.75;16.38;;;;;;;33.63;61.54;100415.25;5081217;27;70001;-35
2022/11/17 08:17:10;;;;;;;19.73;15.45;;;;;;;33.65;61.86;100401.38;5091917;27;64002;-36
2022/11/17 08:19:42;;;;;;;14.45;13.13;;;;;;;33.61;61.76;100390.19;5086333;27;69857;-36
2022/11/17 08:22:13;;;;;;;15.00;13.43;;;;;;;33.63;62.01;100395.34;5087287;27;66202;-36
2022/11/17 08:24:44;;;;;;;15.02;11.02;;;;;;;33.65;61.80;100402.19;5089084;27;69135;-36
2022/11/17 08:27:16;;;;;;;14.32;10.25;;;;;;;33.69;62.14;100408.78;5091956;27;66296;-37
2022/11/17 08:29:47;;;;;;;13.30;9.32;;;;;;;33.69;62.30;100425.09;5090067;27;69983;-36
2022/11/17 08:32:18;;;;;;;12.18;8.50;;;;;;;33.69;62.47;100422.38;5086802;27;65523;-36
2022/11/17 08:34:49;;;;;;;10.85;8.73;;;;;;;33.60;62.58;100415.75;5081076;27;69161;-36
2022/11/17 08:37:21;;;;;;;9.43;8.45;;;;;;;33.69;62.60;100446.88;5083499;27;68188;-36
2022/11/17 08:39:52;;;;;;;9.07;7.28;;;;;;;33.66;62.46;100436.50;5084670;27;69152;-37
2022/11/17 08:42:23;;;;;;;15.23;8.15;;;;;;;33.70;62.47;100437.63;5065836;27;66324;-37
2022/11/17 08:44:54;;;;;;;11.93;7.78;;;;;;;33.66;62.47;100424.78;5082082;27;69810;-35
2022/11/17 08:47:26;;;;;;;13.40;7.13;;;;;;;33.62;62.60;100408.13;5081649;27;65357;-36
2022/11/17 08:49:57;;;;;;;10.43;7.03;;;;;;;33.67;62.60;100419.09;5086040;27;70210;-38
2022/11/17 08:52:29;;;;;;;10.23;7.10;;;;;;;33.69;62.47;100425.09;5081801;27;65248;-34
2022/11/17 08:54:59;;;;;;;;;;;;;;;33.44;63.06;100422.00;5087428;27;70312;-38
2022/11/17 08:57:32;;;;;;;8.07;6.68;;;;;;;32.91;62.38;100315.41;5081461;27;65727;-36
2022/11/17 09:00:04;;;;;;;9.93;6.07;;;;;;;33.69;62.42;100441.44;5084435;27;69709;-36
2022/11/17 09:02:37;;;;;;;7.72;6.35;;;;;;;33.70;62.74;100442.25;5093307;27;65846;-36
2022/11/17 09:05:09;;;;;;;8.77;5.93;;;;;;;33.71;62.31;100450.16;5087755;27;69695;-39
2022/11/17 09:07:41;;;;;;;7.90;7.10;;;;;;;33.69;62.56;100452.31;5089733;27;66351;-36
2022/11/17 09:10:12;;;;;;;6.63;6.05;;;;;;;33.71;62.24;100460.19;5082339;27;69600;-38
2022/11/17 09:12:43;;;;;;;9.25;6.05;;;;;;;33.66;62.57;100458.25;5087913;27;66633;-37
2022/11/17 09:15:15;;;;;;;6.65;6.05;;;;;;;33.69;62.32;100471.34;5083208;27;70212;-38
2022/11/17 09:17:46;;;;;;;8.95;6.00;;;;;;;33.65;62.59;100463.94;5093660;27;65825;-36
2022/11/17 09:20:18;;;;;;;;;;;;;;;33.43;63.38;100469.25;5084456;27;70401;-37
2022/11/17 09:22:49;;;;;;;12.15;6.50;;;;;;;33.50;62.22;100478.09;5085042;27;66354;-38
2022/11/17 09:25:21;;;;;;;8.10;6.15;;;;;;;33.37;62.47;100485.50;5093256;27;70633;-38
2022/11/17 09:27:52;;;;;;;12.15;6.07;;;;;;;33.20;62.73;100490.09;5089822;27;65673;-37
2022/11/17 09:30:24;;;;;;;7.82;5.35;;;;;;;33.19;62.67;100507.50;5094668;27;68859;-36
2022/11/17 09:32:57;;;;;;;5.20;4.50;;;;;;;33.14;62.78;100513.66;5081294;27;66581;-36
2022/11/17 09:35:28;;;;;;;11.98;4.30;;;;;;;33.12;62.41;100517.69;5089538;27;70543;-36
2022/11/17 09:38:00;;;;;;;10.83;6.37;;;;;;;33.06;62.51;100513.22;5082386;27;65570;-38
2022/11/17 09:40:34;;;;;;;13.77;8.80;;;;;;;32.83;62.40;100493.22;5085766;27;70369;-37
2022/11/17 09:43:36;;;;;;;16.52;10.35;;;;;;;32.91;62.63;100522.72;5094027;27;65620;-40
2022/11/17 09:46:34;;;;;;;21.95;10.68;;;;;;;32.91;61.83;100533.59;5080112;27;69722;-37
2022/11/17 09:49:34;;;;;;;20.98;8.60;;;;;;;32.72;61.59;100537.56;5083536;27;66257;-37
2022/11/17 09:52:21;;;;;;;10.75;7.15;;;;;;;32.74;61.33;100532.72;5084129;27;71221;-37
2022/11/17 09:55:08;;;;;;;8.35;6.55;;;;;;;32.67;61.27;100534.72;5088342;27;66488;-37
2022/11/17 09:57:44;;;;;;;8.73;5.78;;;;;;;32.68;61.22;100528.22;5088737;27;70564;-37
2022/11/17 10:00:20;;;;;;;19.42;5.35;;;;;;;32.64;60.92;100530.59;5087791;27;65802;-37
2022/11/17 10:02:53;;;;;;;8.05;4.90;;;;;;;32.33;60.85;100496.53;5088108;27;70394;-38
2022/11/17 10:05:31;;;;;;;7.72;5.00;;;;;;;32.60;60.88;100553.88;5090042;27;66855;-36
2022/11/17 10:08:07;;;;;;;9.50;4.13;;;;;;;32.58;60.95;100557.91;5070882;27;69178;-39
2022/11/17 10:10:48;;;;;;;5.13;4.63;;;;;;;32.38;60.97;100536.56;5089911;27;66685;-38
2022/11/17 10:13:27;;;;;;;8.32;4.47;;;;;;;32.54;60.63;100563.00;5089771;27;69817;-40
2022/11/17 10:16:04;;;;;;;7.30;4.53;;;;;;;32.39;60.97;100546.34;5087686;27;66108;-38
2022/11/17 10:18:38;;;;;;;6.32;4.80;;;;;;;32.46;60.94;100564.19;5088479;27;69318;-36
2022/11/17 10:21:09;;;;;;;7.35;4.15;;;;;;;32.39;61.03;100558.00;5086772;27;66308;-39
2022/11/17 10:23:51;;;;;;;10.38;4.75;;;;;;;32.10;61.23;100508.25;5082587;27;70607;-37
2022/11/17 10:26:22;;;;;;;9.38;4.50;;;;;;;32.47;61.27;100579.41;5069953;27;66060;-37
2022/11/17 10:29:14;;;;;;;7.03;4.43;;;;;;;32.30;60.73;100570.31;5071835;27;69159;-37
2022/11/17 10:31:45;;;;;;;;;;;;;;;32.24;61.77;100595.69;5079716;27;66240;-38
2022/11/17 10:34:35;;;;;;;13.38;8.40;;;;;;;32.35;61.87;100589.41;5086007;27;69939;-36
2022/11/17 10:37:14;;;;;;;11.32;7.82;;;;;;;32.43;62.34;100594.50;5084803;27;65578;-38
2022/11/17 10:39:45;;;;;;;9.27;7.38;;;;;;;32.41;63.02;100593.91;5093579;27;69020;-39
2022/11/17 10:42:21;;;;;;;;;;;;;;;32.27;63.69;100608.78;5085535;27;66606;-36
2022/11/17 10:44:57;;;;;;;10.45;7.57;;;;;;;32.35;63.28;100600.28;5082698;27;70053;-38
2022/11/17 10:47:33;;;;;;;12.05;7.90;;;;;;;32.46;62.83;100610.34;5086259;27;65020;-37
2022/11/17 10:50:23;;;;;;;15.35;6.88;;;;;;;32.38;62.98;100604.41;5088316;27;69642;-39
2022/11/17 10:53:15;;;;;;;11.75;6.82;;;;;;;32.34;62.92;100584.22;5085809;27;67204;-36
2022/11/17 10:55:52;;;;;;;11.48;6.30;;;;;;;32.15;64.06;100550.94;5086316;27;70051;-37
2022/11/17 10:58:29;;;;;;;14.50;6.72;;;;;;;32.42;65.16;100611.00;5090078;27;65529;-37
2022/11/17 11:01:02;;;;;;;8.27;6.53;;;;;;;32.46;65.54;100607.63;5086724;27;69086;-37
2022/11/17 11:03:34;;;;;;;13.35;6.63;;;;;;;32.41;65.25;100593.91;5067430;27;65649;-36
2022/11/17 11:06:25;;;;;;;15.38;7.50;;;;;;;32.38;65.85;100615.28;5092590;27;70397;-37
2022/11/17 11:09:02;;;;;;;9.55;6.70;;;;;;;32.07;65.57;100549.44;5091207;27;66109;-39
2022/11/17 11:11:35;;;;;;;7.22;6.65;;;;;;;32.42;66.25;100605.56;5083944;27;70138;-36
2022/11/17 11:14:30;;;;;;;8.45;6.63;;;;;;;32.34;66.42;100612.19;5086591;27;66680;-37
2022/11/17 11:17:13;;;;;;;8.52;6.47;;;;;;;32.39;66.41;100609.59;5081975;27;70088;-39
2022/11/17 11:19:52;;;;;;;8.50;7.47;;;;;;;32.39;66.19;100619.63;5089923;27;66546;-37
2022/11/17 11:22:47;;;;;;;12.05;7.65;;;;;;;32.37;66.36;100625.28;5084132;27;69625;-37
2022/11/17 11:25:36;;;;;;;6.57;6.07;;;;;;;31.80;66.34;100560.72;5084013;27;65709;-37
2022/11/17 11:28:38;;;;;;;8.15;7.47;;;;;;;32.32;66.55;100649.63;5087180;27;70157;-36
2022/11/17 11:31:22;;;;;;;13.00;7.93;;;;;;;32.34;66.59;100658.31;5087715;27;66261;-36
2022/11/17 11:34:14;;;;;;;11.60;7.97;;;;;;;32.28;67.00;100653.84;5085644;27;69959;-36
2022/11/17 11:37:08;;;;;;;8.15;7.35;;;;;;;32.28;66.78;100664.69;5086286;27;66297;-39
2022/11/17 11:39:47;;;;;;;8.23;7.60;;;;;;;31.85;66.96;100599.88;5053903;27;69715;-36
2022/11/17 11:42:37;;;;;;;11.75;8.63;;;;;;;32.29;66.88;100688.09;5070263;27;65809;-37
2022/11/17 11:45:21;;;;;;;11.85;10.32;;;;;;;32.30;67.31;100683.47;5090917;27;69576;-37
2022/11/17 11:48:14;;;;;;;11.52;10.30;;;;;;;32.24;67.20;100698.81;5083609;27;66389;-37
2022/11/17 11:50:58;;;;;;;11.68;10.52;;;;;;;32.26;67.05;100693.97;5079340;27;69786;-38
2022/11/17 11:53:57;;;;;;;14.57;10.50;;;;;;;32.24;66.98;100696.09;5082588;27;65482;-37
2022/11/17 11:56:35;;;;;;;9.63;8.93;;;;;;;32.24;67.15;100701.53;5084045;27;69377;-37
2022/11/17 11:59:15;;;;;;;13.43;10.40;;;;;;;32.24;67.00;100712.38;5085880;27;65804;-38
2022/11/17 12:01:49;;;;;;;10.95;9.90;;;;;;;32.24;67.49;100717.81;5083064;27;70301;-45
2022/11/17 12:04:49;;;;;;;10.45;9.63;;;;;;;32.17;67.76;100722.50;5084179;27;66235;-38
2022/11/17 12:07:33;;;;;;;10.80;9.73;;;;;;;32.17;67.74;100728.75;5084899;27;70375;-39
2022/11/17 12:10:22;;;;;;;12.05;9.65;;;;;;;32.13;67.74;100748.47;5064884;27;65274;-36
2022/11/17 12:12:54;;;;;;;12.00;9.30;;;;;;;32.20;68.06;100743.75;5080258;27;69825;-37
2022/11/17 12:15:26;;;;;;;10.07;9.05;;;;;;;32.20;67.93;100741.03;5083384;27;66486;-37
2022/11/17 12:18:05;;;;;;;9.40;7.70;;;;;;;32.18;68.14;100740.44;5087837;27;70682;-39
2022/11/17 12:20:43;;;;;;;9.73;8.70;;;;;;;32.20;68.06;100743.75;5085642;27;66109;-37
2022/11/17 12:23:31;;;;;;;10.00;8.93;;;;;;;32.16;68.34;100748.00;5080556;27;69835;-36